Time;durP1;ratioP1;P1;durP2;ratioP2;P2;SDS_P1;SDS_P2;PMS_P1;PMS_P2;Temp;Humidity;BMP_temperature;BMP_pressure;BME280_temperature;BME280_humidity;BME280_pressure;Samples;Min_cycle;Max_cycle;Signal;HPM_P1;HPM_P2
2021/05/20 00:01:30;;;;;;;;;3.00;3.00;;;;;20.13;37.37;99098.69;5005852;28;8760;-41
2021/05/20 00:03:55;;;;;;;;;2.50;2.50;;;;;20.13;37.53;99112.38;5009184;28;8800;-41
2021/05/20 00:06:21;;;;;;;;;3.00;3.00;;;;;20.10;37.48;99107.56;5005995;28;8947;-42
2021/05/20 00:08:46;;;;;;;;;5.25;4.75;;;;;20.04;37.58;99113.28;5004872;28;8786;-42
2021/05/20 00:11:11;;;;;;;;;3.00;3.00;;;;;20.13;37.59;99110.41;4994317;28;8786;-42
2021/05/20 00:13:37;;;;;;;;;4.00;4.00;;;;;20.06;37.45;99112.94;5000078;28;8787;-42
2021/05/20 00:16:02;;;;;;;;;4.00;3.75;;;;;20.12;37.39;99116.22;5005739;28;9545;-39
2021/05/20 00:18:28;;;;;;;;;4.00;4.00;;;;;19.79;37.57;99076.16;5004728;28;8784;-42
2021/05/20 00:20:53;;;;;;;;;3.00;3.00;;;;;20.03;37.69;99119.91;5000154;28;8772;-42
2021/05/20 00:23:18;;;;;;;;;3.50;3.50;;;;;20.06;37.60;99121.16;5005368;28;8780;-42
2021/05/20 00:25:43;;;;;;;;;3.00;3.00;;;;;19.98;37.62;99122.06;5001973;28;8772;-42
2021/05/20 00:28:09;;;;;;;;;3.00;3.00;;;;;19.93;37.89;99125.03;4996298;28;8987;-42
2021/05/20 00:30:34;;;;;;;;;3.00;3.00;;;;;20.17;37.47;99121.47;5002965;28;8858;-42
2021/05/20 00:32:59;;;;;;;;;4.00;4.00;;;;;20.38;37.06;99115.84;5002292;28;8799;-42
2021/05/20 00:35:25;;;;;;;;;3.50;3.50;;;;;20.28;37.07;99124.53;5006527;28;9516;-41
2021/05/20 00:37:50;;;;;;;;;3.00;3.00;;;;;19.92;37.03;99057.75;5003516;28;8768;-42
2021/05/20 00:40:17;;;;;;;;;3.50;3.50;;;;;20.39;36.98;99126.44;5002010;28;8794;-42
2021/05/20 00:42:46;;;;;;;;;4.20;4.20;;;;;20.29;37.01;99129.66;4998921;28;8823;-41
2021/05/20 00:45:12;;;;;;;;;2.80;2.80;;;;;20.21;37.30;99133.31;4995248;28;8803;-41
2021/05/20 00:47:37;;;;;;;;;4.00;4.00;;;;;20.27;37.12;99128.44;4992065;28;9889;-42
2021/05/20 00:50:05;;;;;;;;;4.00;4.00;;;;;20.29;37.18;99132.41;5005161;28;8950;-41
2021/05/20 00:52:31;;;;;;;;;3.00;3.00;;;;;20.22;37.08;99132.19;5001311;28;8842;-41
2021/05/20 00:54:58;;;;;;;;;3.00;3.00;;;;;20.18;37.08;99137.56;5004617;28;8796;-42
2021/05/20 00:57:25;;;;;;;;;3.80;3.80;;;;;20.14;37.31;99142.13;4998212;28;8890;-41
2021/05/20 00:59:51;;;;;;;;;3.20;3.20;;;;;20.05;37.23;99127.75;4988222;28;8787;-42
2021/05/20 01:02:17;;;;;;;;;4.20;4.20;;;;;20.17;37.39;99152.38;4983167;28;9503;-42
2021/05/20 01:04:44;;;;;;;;;4.00;4.00;;;;;20.31;37.08;99141.06;4985559;28;8747;-41
2021/05/20 01:07:09;;;;;;;;;5.00;5.00;;;;;20.20;36.97;99132.53;4985943;28;8795;-42
2021/05/20 01:09:36;;;;;;;;;4.25;4.25;;;;;19.99;37.29;99120.94;5008319;28;8830;-42
2021/05/20 01:12:07;;;;;;;;;4.80;4.40;;;;;20.04;37.46;99140.66;4993611;28;8819;-41
2021/05/20 01:14:40;;;;;;;;;3.20;3.20;;;;;19.56;37.41;99062.91;5000276;28;8843;-41
2021/05/20 01:17:05;;;;;;;;;3.60;3.00;;;;;19.47;37.53;99049.34;4998776;28;8780;-42
2021/05/20 01:19:34;;;;;;;;;3.00;3.00;;;;;19.87;37.37;99110.78;5005296;28;8764;-42
2021/05/20 01:22:00;;;;;;;;;4.00;4.00;;;;;20.07;37.43;99138.38;5004929;28;8777;-41
2021/05/20 01:24:25;;;;;;;;;5.00;5.00;;;;;20.04;37.51;99126.97;5006048;28;8769;-41
2021/05/20 01:26:52;;;;;;;;;4.00;4.00;;;;;20.09;37.46;99125.13;4999431;28;8792;-41
2021/05/20 01:29:17;;;;;;;;;4.00;4.00;;;;;20.03;37.57;99136.34;5004528;28;8812;-41
2021/05/20 01:31:43;;;;;;;;;3.00;3.00;;;;;20.05;37.52;99128.56;5005060;28;8772;-41
2021/05/20 01:34:09;;;;;;;;;3.25;3.25;;;;;20.02;37.52;99134.72;5004641;28;8807;-41
2021/05/20 01:36:34;;;;;;;;;3.60;3.60;;;;;20.21;37.22;99139.63;5006472;28;8800;-42
2021/05/20 01:39:03;;;;;;;;;4.00;4.00;;;;;20.15;37.23;99129.25;5006372;28;8814;-41
2021/05/20 01:41:28;;;;;;;;;3.00;3.00;;;;;20.04;37.28;99134.38;5000398;28;8998;-41
2021/05/20 01:43:54;;;;;;;;;4.00;4.00;;;;;20.00;37.37;99136.22;4994741;28;8905;-42
2021/05/20 01:46:19;;;;;;;;;4.00;4.00;;;;;19.91;37.82;99144.56;4985186;28;8921;-42
2021/05/20 01:48:48;;;;;;;;;3.00;3.00;;;;;19.88;37.70;99133.50;4986299;28;8782;-42
2021/05/20 01:51:15;;;;;;;;;4.00;4.00;;;;;19.77;37.63;99111.25;4986025;28;8791;-41
2021/05/20 01:53:43;;;;;;;;;3.00;3.00;;;;;19.83;37.81;99132.56;4990230;28;8990;-41
2021/05/20 01:56:09;;;;;;;;;3.00;3.00;;;;;19.80;37.68;99137.94;5001603;28;8780;-41
2021/05/20 01:58:36;;;;;;;;;4.00;3.60;;;;;19.76;37.82;99146.03;4989793;28;8816;-41
2021/05/20 02:01:03;;;;;;;;;3.40;2.80;;;;;19.78;37.91;99140.22;5003119;28;8792;-39
2021/05/20 02:03:29;;;;;;;;;5.20;4.40;;;;;19.74;37.70;99142.03;5005258;28;8780;-42
2021/05/20 02:05:57;;;;;;;;;3.00;3.00;;;;;19.79;37.52;99117.97;5005005;28;8838;-41
2021/05/20 02:08:23;;;;;;;;;3.60;3.60;;;;;19.86;37.54;99131.09;4991603;28;8822;-42
2021/05/20 02:10:48;;;;;;;;;3.00;3.00;;;;;20.01;37.48;99144.06;4980935;28;8787;-41
2021/05/20 02:13:14;;;;;;;;;4.00;4.00;;;;;19.98;37.40;99136.56;4970069;28;8847;-41
2021/05/20 02:15:39;;;;;;;;;3.00;3.00;;;;;19.88;37.47;99137.03;5003595;28;8816;-42
2021/05/20 02:18:05;;;;;;;;;3.00;3.00;;;;;19.66;37.63;99119.91;5003731;28;8817;-41
2021/05/20 02:20:32;;;;;;;;;3.20;3.20;;;;;19.80;37.60;99143.41;5006463;28;8761;-42
2021/05/20 02:22:57;;;;;;;;;5.20;4.20;;;;;19.79;37.76;99142.59;5003784;28;8800;-41
2021/05/20 02:25:22;;;;;;;;;4.00;4.00;;;;;19.79;37.81;99141.81;5004332;28;8818;-42
2021/05/20 02:27:48;;;;;;;;;4.00;4.00;;;;;19.80;37.86;99143.41;5002647;28;8800;-42
2021/05/20 02:30:15;;;;;;;;;3.75;3.75;;;;;19.88;37.76;99144.44;4984217;28;8823;-42
2021/05/20 02:32:40;;;;;;;;;4.00;4.00;;;;;19.81;37.75;99139.53;4985442;28;8814;-42
2021/05/20 02:35:07;;;;;;;;;4.00;4.00;;;;;19.88;37.53;99136.22;4993595;28;8792;-42
2021/05/20 02:37:33;;;;;;;;;3.40;3.40;;;;;19.89;37.53;99144.06;5002804;28;8850;-42
2021/05/20 02:39:59;;;;;;;;;4.40;4.00;;;;;19.82;37.66;99139.19;5007111;28;8839;-41
2021/05/20 02:42:24;;;;;;;;;3.00;3.00;;;;;19.98;37.56;99143.97;5001511;28;8831;-41
2021/05/20 02:44:49;;;;;;;;;3.75;3.75;;;;;19.81;37.46;99117.66;4987273;28;8807;-42
2021/05/20 02:47:15;;;;;;;;;4.25;4.00;;;;;19.85;37.31;99132.22;4982546;28;8774;-42
2021/05/20 02:49:43;;;;;;;;;4.00;4.00;;;;;19.86;37.61;99139.31;4989390;28;8826;-41
2021/05/20 02:52:08;;;;;;;;;3.60;3.00;;;;;19.84;37.82;99145.13;5001800;28;8816;-41
2021/05/20 02:54:33;;;;;;;;;3.00;3.00;;;;;19.81;37.78;99145.00;5006049;28;8951;-41
2021/05/20 02:56:59;;;;;;;;;3.00;3.00;;;;;19.74;37.70;99142.84;5001924;28;8792;-42
2021/05/20 02:59:24;;;;;;;;;4.25;4.25;;;;;19.72;37.69;99141.53;5003573;28;8816;-42
2021/05/20 03:01:50;;;;;;;;;4.00;4.00;;;;;18.12;37.43;98926.13;5004547;28;8815;-42
2021/05/20 03:04:15;;;;;;;;;4.00;4.00;;;;;19.28;37.67;99057.31;5002550;28;11511;-42
2021/05/20 03:06:41;;;;;;;;;4.00;4.00;;;;;19.84;37.68;99136.09;5004379;28;8919;-41
2021/05/20 03:09:10;;;;;;;;;4.25;4.25;;;;;19.84;37.62;99136.09;5003470;28;8913;-41
2021/05/20 03:11:35;;;;;;;;;3.20;3.20;;;;;19.86;37.56;99131.88;4985178;28;8868;-41
2021/05/20 03:14:01;;;;;;;;;4.00;4.00;;;;;19.83;37.60;99115.34;4991668;28;8824;-42
2021/05/20 03:16:26;;;;;;;;;4.00;4.00;;;;;20.04;37.30;99145.34;4992940;28;8772;-41
2021/05/20 03:18:52;;;;;;;;;5.00;5.00;;;;;19.94;37.37;99135.63;5001680;28;8812;-42
2021/05/20 03:21:17;;;;;;;;;4.00;4.00;;;;;19.87;37.47;99138.16;4984366;28;8785;-42
2021/05/20 03:23:42;;;;;;;;;4.00;4.00;;;;;19.82;37.49;99141.13;5000598;28;8853;-41
2021/05/20 03:26:08;;;;;;;;;5.00;5.00;;;;;19.80;37.57;99140.66;4999660;28;8807;-42
2021/05/20 03:28:33;;;;;;;;;5.25;5.00;;;;;19.80;37.49;99126.97;5004063;28;8752;-41
2021/05/20 03:30:58;;;;;;;;;4.50;4.50;;;;;19.78;37.71;99129.25;5004399;28;8859;-41
2021/05/20 03:33:24;;;;;;;;;4.00;4.00;;;;;19.79;37.51;99130.88;5002077;28;9578;-41
2021/05/20 03:35:49;;;;;;;;;4.00;4.00;;;;;19.78;37.54;99132.00;5003981;28;8908;-41
2021/05/20 03:38:14;;;;;;;;;4.00;4.00;;;;;19.73;37.60;99126.72;4991164;28;8799;-43
2021/05/20 03:40:40;;;;;;;;;4.00;4.00;;;;;19.73;37.61;99132.19;4988926;28;8803;-41
2021/05/20 03:43:05;;;;;;;;;4.00;4.00;;;;;19.71;37.62;99134.47;5003150;28;8942;-41
2021/05/20 03:45:30;;;;;;;;;3.25;3.25;;;;;19.74;37.68;99131.09;5001762;28;8797;-42
2021/05/20 03:47:56;;;;;;;;;4.00;4.00;;;;;19.59;37.52;99086.03;4987322;28;8868;-42
2021/05/20 03:50:21;;;;;;;;;5.00;5.00;;;;;19.89;37.36;99135.88;5002338;28;8837;-42
2021/05/20 03:52:47;;;;;;;;;4.00;4.00;;;;;19.79;37.66;99131.66;4999777;28;8768;-42
2021/05/20 03:55:12;;;;;;;;;4.00;4.00;;;;;19.74;37.80;99137.34;5004680;28;8788;-42
2021/05/20 03:57:37;;;;;;;;;4.00;4.00;;;;;19.80;37.59;99132.44;5002840;28;8815;-41
2021/05/20 04:00:06;;;;;;;;;4.00;4.00;;;;;19.71;37.61;99124.31;5002208;28;8793;-42
2021/05/20 04:02:32;;;;;;;;;5.20;5.00;;;;;19.75;37.58;99130.75;5006206;28;8752;-42
2021/05/20 04:04:57;;;;;;;;;4.00;4.00;;;;;19.57;37.73;99113.72;5006946;28;8748;-42
2021/05/20 04:07:22;;;;;;;;;5.00;5.00;;;;;19.76;37.70;99139.75;5006559;28;9512;-41
2021/05/20 04:09:48;;;;;;;;;4.75;4.75;;;;;19.79;37.78;99139.09;5009745;28;9584;-41
2021/05/20 04:12:13;;;;;;;;;6.25;5.00;;;;;19.76;37.58;99137.03;5001980;28;8944;-42
2021/05/20 04:14:38;;;;;;;;;4.00;4.00;;;;;19.72;37.67;99136.06;4997312;28;8813;-41
2021/05/20 04:17:04;;;;;;;;;4.00;4.00;;;;;19.66;37.86;99128.09;5007917;28;8838;-41
2021/05/20 04:19:30;;;;;;;;;4.60;4.00;;;;;19.68;38.02;99141.41;5002306;28;8791;-41
2021/05/20 04:21:56;;;;;;;;;4.00;4.00;;;;;19.85;37.48;99140.44;5002006;28;8796;-41
2021/05/20 04:24:22;;;;;;;;;4.75;4.75;;;;;19.76;37.65;99142.50;5005427;28;8858;-42
2021/05/20 04:26:47;;;;;;;;;4.20;4.20;;;;;19.70;37.64;99139.16;5004216;28;8797;-42
2021/05/20 04:29:12;;;;;;;;;4.75;4.75;;;;;19.63;37.76;99136.97;4997886;28;8839;-41
2021/05/20 04:31:38;;;;;;;;;5.00;5.00;;;;;19.65;37.92;99142.13;4991657;28;8834;-42
2021/05/20 04:34:03;;;;;;;;;5.00;5.00;;;;;19.68;37.95;99138.69;4999730;28;8830;-40
2021/05/20 04:36:29;;;;;;;;;5.00;4.60;;;;;19.11;37.74;99052.81;4996933;28;9599;-41
2021/05/20 04:38:54;;;;;;;;;3.00;3.00;;;;;19.64;37.70;99146.78;5001527;28;8796;-42
2021/05/20 04:41:19;;;;;;;;;4.00;4.00;;;;;19.69;37.70;99137.56;4993630;28;8792;-41
2021/05/20 04:43:46;;;;;;;;;4.00;4.00;;;;;19.69;37.76;99134.81;5008193;28;8756;-42
2021/05/20 04:46:11;;;;;;;;;3.40;3.40;;;;;19.69;37.68;99137.56;4998635;28;8787;-41
2021/05/20 04:48:36;;;;;;;;;4.00;4.00;;;;;19.68;37.74;99138.69;5002155;28;8834;-42
2021/05/20 04:51:02;;;;;;;;;4.00;4.00;;;;;19.68;37.67;99131.28;5002645;28;8806;-42
2021/05/20 04:53:28;;;;;;;;;3.25;3.25;;;;;19.85;37.72;99137.69;4989854;28;8810;-42
2021/05/20 04:55:54;;;;;;;;;3.60;3.60;;;;;19.79;37.33;99119.94;4985383;28;9504;-42
2021/05/20 04:58:19;;;;;;;;;4.50;4.50;;;;;19.81;37.50;99137.59;4989240;28;8795;-42
2021/05/20 05:00:45;;;;;;;;;5.00;5.00;;;;;19.71;37.40;99135.28;5005260;28;8824;-42
2021/05/20 05:03:10;;;;;;;;;5.00;5.00;;;;;19.65;37.85;99142.13;5005990;28;8791;-41
2021/05/20 05:05:35;;;;;;;;;4.75;4.00;;;;;19.58;37.87;99136.41;5004705;28;8810;-42
2021/05/20 05:08:01;;;;;;;;;5.75;5.00;;;;;19.62;37.76;99140.84;5000203;28;8805;-44
2021/05/20 05:10:26;;;;;;;;;5.00;5.00;;;;;19.64;37.80;99145.97;5000417;28;8892;-42
2021/05/20 05:12:52;;;;;;;;;5.25;5.00;;;;;19.63;37.91;99150.66;5004117;28;8947;-41
2021/05/20 05:15:17;;;;;;;;;3.75;3.75;;;;;19.63;37.84;99150.66;4998226;28;8813;-42
2021/05/20 05:17:42;;;;;;;;;4.00;4.00;;;;;19.63;37.73;99156.13;5001676;28;11368;-41
2021/05/20 05:20:08;;;;;;;;;4.50;4.50;;;;;19.65;37.70;99153.06;5000339;28;8769;-42
2021/05/20 05:22:33;;;;;;;;;3.50;3.50;;;;;19.62;37.68;99157.25;4995002;28;9593;-41
2021/05/20 05:24:59;;;;;;;;;4.00;3.50;;;;;19.68;37.88;99147.72;4990306;28;11539;-42
2021/05/20 05:27:24;;;;;;;;;4.00;4.00;;;;;19.36;37.71;99089.19;4991330;28;8865;-41
2021/05/20 05:29:51;;;;;;;;;7.00;6.75;;;;;19.85;37.44;99148.66;4992018;28;8827;-42
2021/05/20 05:32:16;;;;;;;;;4.20;4.20;;;;;19.81;37.40;99151.28;4992412;28;8925;-42
2021/05/20 05:34:41;;;;;;;;;4.25;4.25;;;;;19.63;37.76;99152.59;4994696;28;8954;-41
2021/05/20 05:37:07;;;;;;;;;4.50;4.50;;;;;19.57;37.94;99151.22;4999725;28;8810;-41
2021/05/20 05:39:32;;;;;;;;;4.25;4.25;;;;;19.62;37.92;99167.41;4991637;28;8803;-42
2021/05/20 05:41:58;;;;;;;;;5.00;4.80;;;;;19.62;37.68;99148.25;4995632;28;8849;-41
2021/05/20 05:44:24;;;;;;;;;3.00;3.00;;;;;19.65;37.80;99147.59;4994133;28;8839;-41
2021/05/20 05:46:50;;;;;;;;;3.00;3.00;;;;;19.64;37.78;99146.78;4991436;28;8795;-42
2021/05/20 05:49:22;;;;;;;;;5.00;5.00;;;;;19.62;37.71;99146.31;4992765;28;9741;-41
2021/05/20 05:51:51;;;;;;;;;4.00;4.00;;;;;19.60;37.67;99145.88;4998156;28;8808;-41
2021/05/20 05:54:17;;;;;;;;;4.60;4.60;;;;;19.59;37.89;99143.47;4994068;28;8799;-41
2021/05/20 05:56:42;;;;;;;;;6.00;6.00;;;;;19.45;37.86;99135.59;4990469;28;8890;-41
2021/05/20 05:59:10;;;;;;;;;5.00;5.00;;;;;19.64;37.83;99149.50;5001135;28;8811;-41
2021/05/20 06:01:38;;;;;;;;;4.20;4.20;;;;;19.75;37.50;99146.34;4996209;28;8784;-42
2021/05/20 06:04:05;;;;;;;;;4.80;4.80;;;;;19.03;37.78;99061.91;4993690;28;8800;-43
2021/05/20 06:06:30;;;;;;;;;5.00;5.00;;;;;19.60;37.91;99142.34;4991014;28;8810;-44
2021/05/20 06:08:56;;;;;;;;;4.25;4.25;;;;;19.58;37.88;99147.34;4997674;28;9479;-44
2021/05/20 06:11:21;;;;;;;;;4.00;4.00;;;;;19.56;37.89;99144.13;4992775;28;8825;-41
2021/05/20 06:13:46;;;;;;;;;5.75;4.75;;;;;19.56;37.90;99147.69;4997618;28;8821;-41
2021/05/20 06:16:12;;;;;;;;;4.25;4.25;;;;;19.51;38.05;99149.84;4998141;28;8808;-41
2021/05/20 06:18:37;;;;;;;;;3.25;3.25;;;;;19.50;37.88;99149.03;4998115;28;8869;-42
2021/05/20 06:21:03;;;;;;;;;4.75;4.75;;;;;19.49;37.99;99155.66;4998440;28;8788;-41
2021/05/20 06:23:28;;;;;;;;;4.00;4.00;;;;;19.49;38.15;99150.19;4996430;28;9606;-42
2021/05/20 06:25:54;;;;;;;;;4.00;4.00;;;;;19.49;38.25;99159.19;4998818;28;12211;-42
2021/05/20 06:28:19;;;;;;;;;5.00;4.00;;;;;19.35;38.05;99127.81;4998798;28;8792;-42
2021/05/20 06:30:44;;;;;;;;;4.00;4.00;;;;;19.42;38.26;99150.75;4998365;28;8828;-42
2021/05/20 06:33:10;;;;;;;;;3.00;3.00;;;;;19.61;38.00;99152.13;4997936;28;9622;-42
2021/05/20 06:35:35;;;;;;;;;6.00;6.00;;;;;19.64;37.95;99159.66;4998079;28;8820;-42
2021/05/20 06:38:00;;;;;;;;;3.00;3.00;;;;;19.49;37.98;99161.94;4992232;28;8801;-42
2021/05/20 06:40:26;;;;;;;;;4.75;4.75;;;;;19.39;38.15;99159.63;5002697;28;9441;-42
2021/05/20 06:42:51;;;;;;;;;3.25;3.25;;;;;19.36;38.22;99164.97;4998797;28;8919;-42
2021/05/20 06:45:17;;;;;;;;;4.00;4.00;;;;;19.35;38.20;99163.34;5002777;28;8812;-43
2021/05/20 06:47:42;;;;;;;;;3.50;3.50;;;;;19.35;38.38;99166.09;5000267;28;9578;-42
2021/05/20 06:50:08;;;;;;;;;3.00;3.00;;;;;19.38;38.09;99160.75;4995299;28;8787;-42
2021/05/20 06:52:33;;;;;;;;;3.00;3.00;;;;;19.40;38.17;99163.16;4990228;28;8792;-42
2021/05/20 06:54:59;;;;;;;;;3.25;3.00;;;;;19.38;38.18;99168.94;5003573;28;8851;-42
2021/05/20 06:57:31;;;;;;;;;5.00;5.00;;;;;19.34;38.33;99164.50;4996289;28;8945;-42
2021/05/20 06:59:57;;;;;;;;;5.00;5.00;;;;;19.37;38.13;99156.44;5002577;28;8911;-42
2021/05/20 07:02:24;;;;;;;;;4.00;4.00;;;;;19.40;38.19;99160.41;4991402;28;8811;-42
2021/05/20 07:04:49;;;;;;;;;3.00;3.00;;;;;19.50;38.33;99165.44;4992984;28;8771;-42
2021/05/20 07:07:14;;;;;;;;;4.75;4.75;;;;;19.56;38.01;99169.59;4999391;28;8839;-43
2021/05/20 07:09:40;;;;;;;;;4.00;4.00;;;;;19.53;37.95;99167.50;4995355;28;8848;-42
2021/05/20 07:12:07;;;;;;;;;4.00;4.00;;;;;18.90;38.15;99086.47;4989310;28;9643;-42
2021/05/20 07:14:33;;;;;;;;;4.00;4.00;;;;;19.52;38.10;99167.84;5003850;28;11507;-42
2021/05/20 07:16:58;;;;;;;;;3.00;3.00;;;;;19.52;37.98;99170.59;4993860;28;8813;-42
2021/05/20 07:19:24;;;;;;;;;3.75;3.75;;;;;19.31;38.05;99138.63;5001285;28;8748;-42
2021/05/20 07:21:50;;;;;;;;;2.50;2.50;;;;;19.45;38.02;99171.97;5004677;28;8800;-42
2021/05/20 07:24:16;;;;;;;;;3.40;3.40;;;;;19.35;38.13;99168.84;4995942;28;8787;-42
2021/05/20 07:26:42;;;;;;;;;3.00;3.00;;;;;19.44;37.98;99170.34;4999374;28;8799;-42
2021/05/20 07:29:08;;;;;;;;;3.75;3.75;;;;;19.42;38.13;99169.09;5002219;28;8788;-42
2021/05/20 07:31:34;;;;;;;;;3.25;3.25;;;;;19.46;38.04;99165.34;4996577;28;8791;-42
2021/05/20 07:33:59;;;;;;;;;4.00;3.20;;;;;19.49;38.02;99172.06;5004029;28;8894;-42
2021/05/20 07:36:25;;;;;;;;;3.00;3.00;;;;;19.46;38.06;99161.81;4990304;28;8799;-42
2021/05/20 07:38:50;;;;;;;;;3.25;3.25;;;;;19.62;37.95;99170.94;4996958;28;8822;-41
2021/05/20 07:41:17;;;;;;;;;4.00;4.00;;;;;19.66;37.85;99171.06;4990420;28;8787;-42
2021/05/20 07:43:42;;;;;;;;;3.40;3.40;;;;;19.55;37.87;99164.44;4995013;28;8775;-42
2021/05/20 07:46:08;;;;;;;;;4.00;4.00;;;;;19.49;38.10;99166.59;4995246;28;8819;-41
2021/05/20 07:48:34;;;;;;;;;2.20;2.20;;;;;19.41;38.34;99162.03;4993327;28;8818;-42
2021/05/20 07:51:00;;;;;;;;;3.00;3.00;;;;;19.38;38.06;99163.47;5003739;28;8869;-42
2021/05/20 07:53:26;;;;;;;;;3.00;3.00;;;;;19.39;38.21;99162.34;5005537;28;8870;-42
2021/05/20 07:55:51;;;;;;;;;3.00;3.00;;;;;19.33;38.20;99157.44;4991163;28;9503;-42
2021/05/20 07:58:16;;;;;;;;;3.50;3.50;;;;;19.16;38.31;99134.63;4992778;28;12313;-42
2021/05/20 08:00:42;;;;;;;;;3.00;3.00;;;;;19.29;38.28;99149.94;4978048;28;8804;-42
2021/05/20 08:13:12;;;;;;;;;3.00;3.00;;;;;19.48;38.28;99152.13;4977644;28;8845;-42
2021/05/20 08:15:38;;;;;;;;;3.00;3.00;;;;;19.26;38.41;99128.72;4994497;28;8822;-42
2021/05/20 08:18:03;;;;;;;;;3.00;3.00;;;;;19.39;38.25;99153.38;4994173;28;8791;-42
2021/05/20 08:20:29;;;;;;;;;3.00;3.00;;;;;19.33;38.46;99146.50;5001584;28;8907;-42
2021/05/20 08:22:54;;;;;;;;;2.25;2.25;;;;;19.29;38.47;99140.91;5004576;28;8831;-44
2021/05/20 08:25:20;;;;;;;;;3.50;3.00;;;;;19.16;38.33;99142.81;5001983;28;8800;-42
2021/05/20 08:27:45;;;;;;;;;3.00;3.00;;;;;19.25;38.50;99140.00;5001084;28;9077;-42
2021/05/20 08:30:11;;;;;;;;;3.00;3.00;;;;;19.67;37.80;99135.16;5006856;28;8857;-42
2021/05/20 08:32:36;;;;;;;;;3.00;3.00;;;;;19.68;37.71;99133.22;5006210;28;8812;-42
2021/05/20 08:35:02;;;;;;;;;3.00;3.00;;;;;19.58;37.99;99130.94;5001682;28;8800;-42
2021/05/20 08:37:28;;;;;;;;;3.20;3.20;;;;;19.85;37.44;99124.81;5006708;28;8812;-43
2021/05/20 08:39:54;;;;;;;;;3.40;3.40;;;;;19.89;37.45;99124.13;5006428;28;8812;-42
2021/05/20 08:42:19;;;;;;;;;2.00;2.00;;;;;19.84;37.27;99125.16;4998171;28;8917;-42
2021/05/20 08:44:45;;;;;;;;;3.00;3.00;;;;;19.96;37.54;99119.66;4997883;28;8905;-43
2021/05/20 08:47:11;;;;;;;;;3.00;3.00;;;;;19.96;37.44;99127.09;5003240;28;8820;-42
2021/05/20 08:49:37;;;;;;;;;2.80;2.80;;;;;19.74;37.76;99122.88;5003449;28;8771;-42
2021/05/20 08:52:03;;;;;;;;;3.40;3.40;;;;;19.66;37.87;99119.06;5006502;28;9556;-42
2021/05/20 08:54:29;;;;;;;;;3.00;3.00;;;;;19.11;37.97;99061.03;5006939;28;8886;-42
2021/05/20 08:56:55;;;;;;;;;3.00;3.00;;;;;19.51;38.10;99119.75;5002030;28;11545;-42
2021/05/20 08:59:21;;;;;;;;;3.00;3.00;;;;;19.53;38.07;99112.81;5003276;28;8918;-42
2021/05/20 09:01:48;;;;;;;;;3.00;3.00;;;;;19.54;38.16;99114.41;4996286;28;8785;-42
2021/05/20 09:04:14;;;;;;;;;2.40;2.40;;;;;19.58;37.80;99093.44;4986143;28;9503;-42
2021/05/20 09:06:49;;;;;;;;;2.25;2.25;;;;;19.63;37.61;99112.38;5008490;28;8820;-42
2021/05/20 09:09:21;;;;;;;;;2.20;2.20;;;;;19.36;37.96;99064.56;5005035;28;8784;-43
2021/05/20 09:11:57;;;;;;;;;2.80;2.80;;;;;19.63;37.72;99109.63;4997379;28;8788;-42
2021/05/20 09:14:29;;;;;;;;;2.00;2.00;;;;;19.58;37.79;99115.31;5005837;28;8780;-42
2021/05/20 09:17:11;;;;;;;;;2.00;2.00;;;;;19.58;38.10;99114.53;4999585;28;8822;-42
2021/05/20 09:19:38;;;;;;;;;3.20;3.00;;;;;19.65;37.93;99109.28;4998169;28;8783;-43
2021/05/20 09:22:05;;;;;;;;;2.00;2.00;;;;;19.49;37.99;99107.22;4982829;28;8809;-42
2021/05/20 09:24:44;;;;;;;;;2.00;2.00;;;;;17.45;38.07;98806.03;5006126;28;8823;-42
2021/05/20 09:27:34;;;;;;;;;2.00;2.00;;;;;19.37;38.39;99118.16;5000356;28;8834;-43
2021/05/20 09:30:15;;;;;;;;;2.00;2.00;;;;;19.37;38.35;99117.34;4972347;28;9506;-43
2021/05/20 09:32:53;;;;;;;;;2.40;2.40;;;;;19.55;38.08;99116.00;4998380;28;8812;-42
2021/05/20 09:35:27;;;;;;;;;3.00;3.00;;;;;19.58;37.99;99120.00;5003401;28;8808;-42
2021/05/20 09:38:00;;;;;;;;;2.00;2.00;;;;;19.53;38.03;99114.75;5006395;28;8800;-43
2021/05/20 09:40:29;;;;;;;;;2.00;2.00;;;;;19.46;38.07;99112.56;5005460;28;8871;-42
2021/05/20 09:42:55;;;;;;;;;2.00;2.00;;;;;19.45;38.13;99127.38;4997733;28;8816;-42
2021/05/20 09:45:24;;;;;;;;;2.40;2.40;;;;;19.42;38.16;99119.88;5005798;28;9559;-41
2021/05/20 09:47:51;;;;;;;;;2.40;2.40;;;;;19.47;38.11;99119.63;5001463;28;8788;-42
2021/05/20 09:50:22;;;;;;;;;2.20;2.20;;;;;19.38;38.01;99083.38;4999324;28;8801;-42
2021/05/20 09:52:48;;;;;;;;;2.00;2.00;;;;;19.48;37.71;99085.69;4992812;28;8775;-42
2021/05/20 09:55:24;;;;;;;;;2.60;2.60;;;;;19.57;37.78;99115.66;5000386;28;8772;-42
2021/05/20 09:57:50;;;;;;;;;3.00;3.00;;;;;19.27;37.86;99089.28;4999487;28;8868;-42
2021/05/20 10:00:20;;;;;;;;;2.80;2.00;;;;;19.39;37.93;99120.53;5004388;28;8765;-42
2021/05/20 10:02:46;;;;;;;;;2.00;2.00;;;;;19.37;38.04;99131.81;4982174;28;8804;-42
2021/05/20 10:05:21;;;;;;;;;2.00;2.00;;;;;19.37;38.20;99134.56;4989767;28;8926;-42
2021/05/20 10:07:47;;;;;;;;;2.80;2.80;;;;;19.25;38.12;99127.13;4998983;28;8759;-42
2021/05/20 10:10:14;;;;;;;;;1.75;1.75;;;;;19.32;38.08;99148.44;4980129;28;8869;-42
2021/05/20 10:12:44;;;;;;;;;2.00;2.00;;;;;19.33;38.13;99143.75;4994894;28;8824;-42
2021/05/20 10:15:18;;;;;;;;;2.00;2.00;;;;;19.39;38.26;99150.63;4994914;28;8812;-42
2021/05/20 10:17:45;;;;;;;;;2.00;2.00;;;;;19.46;37.91;99148.13;5002261;28;8897;-42
2021/05/20 10:20:13;;;;;;;;;2.00;2.00;;;;;19.38;38.20;99140.81;5002817;28;8785;-42
2021/05/20 10:22:38;;;;;;;;;2.00;2.00;;;;;19.27;38.60;99154.91;5004397;28;8748;-43
2021/05/20 10:25:05;;;;;;;;;2.00;2.00;;;;;19.45;38.04;99144.59;5002463;28;8823;-42
2021/05/20 10:27:31;;;;;;;;;2.00;2.00;;;;;19.47;38.07;99146.97;4999737;28;8811;-42
2021/05/20 10:29:59;;;;;;;;;2.75;2.75;;;;;19.27;38.27;99146.72;5004780;28;8816;-42
2021/05/20 10:32:25;;;;;;;;;1.00;1.00;;;;;19.27;38.29;99141.25;5002390;28;8824;-42
2021/05/20 10:34:58;;;;;;;;;2.00;2.00;;;;;19.33;38.14;99139.13;5004236;28;8786;-42
2021/05/20 10:37:28;;;;;;;;;2.00;2.00;;;;;19.25;38.21;99109.91;5005579;28;8739;-42
2021/05/20 10:39:54;;;;;;;;;1.80;1.80;;;;;19.48;38.14;99137.66;5004659;28;8784;-42
2021/05/20 10:42:37;;;;;;;;;2.00;2.00;;;;;19.43;38.02;99141.38;4995467;28;8813;-43
2021/05/20 10:45:22;;;;;;;;;3.40;2.80;;;;;19.72;37.87;99136.06;5004663;28;8903;-42
2021/05/20 10:48:03;;;;;;;;;1.20;1.20;;;;;21.01;35.72;99129.00;5002819;28;8800;-42
2021/05/20 10:50:54;;;;;;;;;1.00;1.00;;;;;19.53;37.71;99139.38;5002382;28;8773;-42
2021/05/20 10:53:37;;;;;;;;;1.00;1.00;;;;;19.39;38.09;99126.81;4980503;28;8881;-43
2021/05/20 10:56:06;;;;;;;;;2.00;2.00;;;;;19.47;38.00;99136.03;4978308;28;8812;-42
2021/05/20 10:58:35;;;;;;;;;2.00;2.00;;;;;19.53;38.11;99131.16;4998362;28;8757;-42
2021/05/20 11:01:06;;;;;;;;;2.00;2.00;;;;;19.35;38.28;99123.16;5005986;28;8943;-42
2021/05/20 11:03:52;;;;;;;;;2.00;2.00;;;;;19.25;38.28;99129.06;5003939;28;8808;-42
2021/05/20 11:06:21;;;;;;;;;2.00;2.00;;;;;19.18;38.33;99118.69;5001046;28;8776;-42
2021/05/20 11:08:46;;;;;;;;;1.00;1.00;;;;;19.13;38.55;99129.03;5001828;28;8866;-42
2021/05/20 11:11:30;;;;;;;;;1.00;1.00;;;;;19.13;38.69;99123.56;4983313;28;8797;-42
2021/05/20 11:13:57;;;;;;;;;1.20;1.20;;;;;19.12;38.61;99122.78;4981872;28;8794;-43
2021/05/20 11:16:36;;;;;;;;;2.00;2.00;;;;;19.12;38.50;99122.78;4990350;28;9480;-43
2021/05/20 11:21:57;;;;;;;;;1.80;1.80;;;;;19.13;38.61;99120.84;4983462;28;9036;-42
2021/05/20 11:24:26;;;;;;;;;2.00;2.00;;;;;19.33;38.34;99130.09;4985383;28;8787;-42
2021/05/20 11:26:52;;;;;;;;;1.00;1.00;;;;;19.37;38.11;99120.88;4993224;28;8807;-42
2021/05/20 11:29:17;;;;;;;;;2.00;2.00;;;;;19.48;38.29;99116.56;5004249;28;8835;-42
2021/05/20 11:31:43;;;;;;;;;2.00;2.00;;;;;19.51;37.90;99109.63;5006434;28;8795;-41
2021/05/20 11:36:47;;;;;;;;;2.00;2.00;;;;;19.28;38.41;99101.03;5005429;28;8808;-42
2021/05/20 11:39:14;;;;;;;;;2.00;2.00;;;;;19.19;38.50;99094.84;5007306;28;8852;-42
2021/05/20 11:41:42;;;;;;;;;1.80;1.80;;;;;18.78;38.42;99039.16;5001696;28;8780;-42
2021/05/20 11:44:22;;;;;;;;;2.00;2.00;;;;;19.86;37.83;99098.25;5000103;28;8783;-43
2021/05/20 11:47:04;;;;;;;;;2.00;2.00;;;;;19.62;37.59;99094.34;5000111;28;8799;-43
2021/05/20 11:49:30;;;;;;;;;1.00;1.00;;;;;19.64;37.78;99089.31;5007733;28;8818;-42
2021/05/20 11:52:02;;;;;;;;;1.00;1.00;;;;;19.49;37.79;99088.06;5007984;28;8796;-42
2021/05/20 11:54:29;;;;;;;;;2.00;2.00;;;;;19.43;38.18;99080.44;5007279;28;8835;-42
2021/05/20 11:56:56;;;;;;;;;2.00;2.00;;;;;19.40;37.94;99075.63;4996346;28;8814;-43